createdAt,value
2022-10-11T00:01:07.059Z,9.00
2022-10-11T00:03:35.094Z,10.20
2022-10-11T00:06:06.071Z,8.80
2022-10-11T00:08:35.028Z,8.20
2022-10-11T00:11:05.376Z,9.27
2022-10-11T00:13:33.554Z,8.53
2022-10-11T00:16:01.769Z,8.17
2022-10-11T00:18:31.296Z,7.53
2022-10-11T00:21:04.524Z,8.13
2022-10-11T00:23:33.002Z,8.93
2022-10-11T00:26:03.062Z,9.07
2022-10-11T00:28:31.504Z,8.60
2022-10-11T00:30:59.575Z,7.10
2022-10-11T00:33:28.752Z,8.50
2022-10-11T00:36:00.358Z,7.97
2022-10-11T00:38:31.886Z,8.00
2022-10-11T00:41:00.266Z,7.83
2022-10-11T00:43:31.708Z,8.13
2022-10-11T00:46:28.146Z,7.83
2022-10-11T00:49:00.193Z,8.00
2022-10-11T00:51:37.795Z,8.10
2022-10-11T00:54:07.808Z,8.30
2022-10-11T00:56:38.591Z,8.30
2022-10-11T00:59:12.176Z,8.60
2022-10-11T01:01:40.312Z,8.47
2022-10-11T01:04:09.506Z,8.20
2022-10-11T01:06:38.973Z,8.43
2022-10-11T01:09:08.348Z,8.50
2022-10-11T01:11:37.608Z,8.30
2022-10-11T01:14:21.124Z,7.73
2022-10-11T01:16:54.136Z,7.50
2022-10-11T01:19:40.073Z,8.17
2022-10-11T01:22:22.580Z,8.00
2022-10-11T01:25:01.591Z,7.70
2022-10-11T01:27:56.871Z,8.70
2022-10-11T01:30:27.616Z,7.30
2022-10-11T01:33:02.931Z,8.10
2022-10-11T01:35:37.542Z,7.20
2022-10-11T01:38:12.081Z,8.27
2022-10-11T01:40:44.214Z,7.00
2022-10-11T01:43:14.505Z,7.70
2022-10-11T01:45:45.811Z,8.43
2022-10-11T01:48:15.199Z,8.20
2022-10-11T01:50:48.510Z,8.07
2022-10-11T01:53:49.246Z,8.03
2022-10-11T01:56:23.850Z,8.30
2022-10-11T01:59:01.880Z,8.03
2022-10-11T02:01:37.668Z,9.47
2022-10-11T02:04:11.363Z,7.60
2022-10-11T02:06:47.658Z,7.97
2022-10-11T02:09:21.847Z,7.77
2022-10-11T02:11:52.175Z,7.20
2022-10-11T02:14:23.485Z,8.50
2022-10-11T02:16:58.437Z,8.30
2022-10-11T02:19:30.119Z,7.03
2022-10-11T02:22:02.603Z,7.30
2022-10-11T02:24:33.329Z,7.57
2022-10-11T02:27:04.594Z,7.30
2022-10-11T02:29:35.705Z,7.30
2022-10-11T02:32:05.878Z,7.63
2022-10-11T02:34:37.528Z,7.60
2022-10-11T02:37:08.964Z,8.43
2022-10-11T02:39:41.357Z,8.50
2022-10-11T02:42:14.283Z,7.70
2022-10-11T02:44:45.144Z,8.50
2022-10-11T02:47:16.269Z,7.20
2022-10-11T02:49:44.430Z,7.43
2022-10-11T02:52:12.519Z,7.87
2022-10-11T02:54:40.730Z,8.33
2022-10-11T02:57:09.331Z,7.10
2022-10-11T02:59:37.399Z,8.50
2022-10-11T03:02:05.536Z,7.53
2022-10-11T03:04:35.017Z,8.00
2022-10-11T03:07:03.358Z,7.57
2022-10-11T03:09:31.417Z,8.27
2022-10-11T03:12:01.404Z,8.33
2022-10-11T03:14:29.634Z,7.53
2022-10-11T03:17:17.175Z,7.47
2022-10-11T03:19:47.592Z,6.97
2022-10-11T03:22:19.049Z,8.00
2022-10-11T03:24:47.198Z,7.43
2022-10-11T03:27:18.064Z,8.77
2022-10-11T03:29:46.066Z,7.57
2022-10-11T03:32:14.394Z,8.53
2022-10-11T03:34:44.595Z,8.23
2022-10-11T03:37:17.181Z,8.13
2022-10-11T03:39:45.719Z,8.70
2022-10-11T03:42:15.171Z,8.20
2022-10-11T03:44:43.266Z,8.60
2022-10-11T03:47:11.503Z,8.80
2022-10-11T03:49:43.434Z,8.33
2022-10-11T03:52:12.658Z,8.60
2022-10-11T03:54:42.095Z,9.43
2022-10-11T03:57:10.406Z,8.50
2022-10-11T03:59:38.408Z,8.33
2022-10-11T04:02:06.557Z,10.30
2022-10-11T04:04:34.742Z,9.70
2022-10-11T04:07:02.837Z,8.53
2022-10-11T04:09:30.863Z,8.67
2022-10-11T04:12:02.477Z,8.43
2022-10-11T04:14:30.711Z,9.33
2022-10-11T04:17:00.602Z,8.33
2022-10-11T04:19:31.422Z,9.33
2022-10-11T04:22:00.969Z,9.90
2022-10-11T04:24:30.325Z,9.10
2022-10-11T04:26:58.427Z,9.43
2022-10-11T04:29:32.521Z,10.00
2022-10-11T04:32:00.842Z,10.50
2022-10-11T04:34:30.089Z,9.83
2022-10-11T04:36:58.192Z,9.70
2022-10-11T04:39:26.489Z,9.63
2022-10-11T04:41:55.921Z,9.50
2022-10-11T04:44:23.989Z,9.90
2022-10-11T04:46:53.423Z,9.40
2022-10-11T04:49:23.962Z,10.20
2022-10-11T04:51:53.022Z,10.10
2022-10-11T04:54:22.659Z,10.10
2022-10-11T04:56:50.864Z,10.80
2022-10-11T04:59:20.446Z,10.87
2022-10-11T05:01:48.934Z,10.43
2022-10-11T05:04:22.831Z,11.00
2022-10-11T05:06:51.545Z,10.57
2022-10-11T05:09:21.941Z,10.97
2022-10-11T05:11:50.584Z,11.90
2022-10-11T05:14:20.337Z,13.20
2022-10-11T05:16:48.475Z,11.90
2022-10-11T05:19:31.958Z,12.63
2022-10-11T05:22:02.603Z,11.90
2022-10-11T05:24:30.701Z,12.93
2022-10-11T05:27:03.309Z,12.00
2022-10-11T05:29:32.116Z,12.50
2022-10-11T05:32:00.228Z,12.67
2022-10-11T05:34:33.580Z,12.30
2022-10-11T05:37:02.533Z,12.57
2022-10-11T05:39:30.737Z,12.40
2022-10-11T05:41:58.808Z,12.10
2022-10-11T05:44:27.186Z,12.97
2022-10-11T05:46:55.266Z,12.30
2022-10-11T05:49:24.659Z,14.20
2022-10-11T05:51:54.975Z,12.50
2022-10-11T05:54:23.489Z,12.87
2022-10-11T05:56:51.557Z,13.13
2022-10-11T05:59:20.615Z,13.33
2022-10-11T06:01:48.735Z,14.47
2022-10-11T06:04:19.124Z,13.27
2022-10-11T06:06:47.233Z,13.70
2022-10-11T06:09:17.890Z,13.17
2022-10-11T06:11:45.957Z,13.87
2022-10-11T06:14:14.092Z,13.17
2022-10-11T06:16:42.233Z,13.10
2022-10-11T06:19:10.349Z,14.00
2022-10-11T06:21:38.446Z,14.27
2022-10-11T06:24:07.490Z,18.20
2022-10-11T06:26:36.910Z,29.73
2022-10-11T06:29:05.023Z,23.03
2022-10-11T06:31:33.239Z,19.53
2022-10-11T06:34:01.281Z,16.50
2022-10-11T06:36:29.947Z,15.53
2022-10-11T06:39:01.021Z,14.67
2022-10-11T06:41:30.502Z,14.97
2022-10-11T06:44:00.142Z,14.80
2022-10-11T06:46:29.322Z,15.60
2022-10-11T06:48:57.536Z,15.30
2022-10-11T06:51:27.241Z,18.70
2022-10-11T06:53:57.817Z,17.37
2022-10-11T06:56:27.137Z,16.87
2022-10-11T06:58:55.871Z,16.20
2022-10-11T07:01:25.917Z,16.40
2022-10-11T07:03:55.930Z,13.70
2022-10-11T07:06:26.040Z,15.20
2022-10-11T07:08:54.575Z,14.10
2022-10-11T07:11:24.442Z,13.20
2022-10-11T07:13:54.508Z,12.93
2022-10-11T07:16:23.928Z,13.40
2022-10-11T07:18:59.928Z,14.00
2022-10-11T07:21:29.442Z,14.10
2022-10-11T07:23:57.502Z,14.83
2022-10-11T07:26:25.582Z,14.33
2022-10-11T07:28:53.715Z,14.40
2022-10-11T07:31:24.043Z,13.87
2022-10-11T07:33:52.266Z,13.30
2022-10-11T07:36:23.232Z,14.70
2022-10-11T07:38:51.443Z,13.53
2022-10-11T07:41:19.742Z,13.00
2022-10-11T07:43:49.692Z,14.53
2022-10-11T07:46:18.874Z,15.30
2022-10-11T07:48:47.096Z,15.13
2022-10-11T07:51:16.986Z,14.77
2022-10-11T07:53:47.924Z,16.17
2022-10-11T07:56:17.041Z,14.83
2022-10-11T07:58:51.447Z,14.17
2022-10-11T08:01:19.998Z,14.00
2022-10-11T08:03:48.609Z,17.20
2022-10-11T08:06:18.756Z,16.47
2022-10-11T08:08:48.687Z,14.97
2022-10-11T08:11:23.339Z,15.27
2022-10-11T08:13:51.414Z,17.53
2022-10-11T08:16:19.570Z,16.30
2022-10-11T08:18:47.650Z,15.27
2022-10-11T08:21:17.795Z,15.10
2022-10-11T08:24:06.807Z,15.87
2022-10-11T08:26:35.616Z,16.00
2022-10-11T08:29:04.258Z,14.37
2022-10-11T08:31:32.565Z,16.30
2022-10-11T08:34:00.670Z,14.70
2022-10-11T08:36:28.804Z,14.40
2022-10-11T08:38:56.860Z,14.83
2022-10-11T08:41:33.200Z,13.33
2022-10-11T08:44:21.728Z,13.00
2022-10-11T08:46:56.890Z,11.80
2022-10-11T08:49:30.864Z,10.13
2022-10-11T08:52:03.961Z,9.63
2022-10-11T08:54:38.508Z,9.80
2022-10-11T08:57:09.054Z,9.87
2022-10-11T08:59:41.121Z,9.33
2022-10-11T09:02:21.247Z,9.90
2022-10-11T09:04:53.103Z,9.90
2022-10-11T09:07:30.840Z,10.07
2022-10-11T09:10:08.959Z,9.63
2022-10-11T09:12:48.085Z,9.60
2022-10-11T09:15:30.775Z,10.63
2022-10-11T09:18:26.184Z,11.27
2022-10-11T09:21:22.893Z,9.70
2022-10-11T09:24:12.697Z,10.20
2022-10-11T09:26:44.834Z,9.40
2022-10-11T09:29:19.112Z,10.53
2022-10-11T09:31:48.636Z,9.13
2022-10-11T09:34:17.206Z,10.63
2022-10-11T09:36:50.495Z,9.43
2022-10-11T09:39:28.088Z,10.20
2022-10-11T09:41:59.805Z,9.60
2022-10-11T09:44:30.981Z,10.00
2022-10-11T09:46:59.486Z,11.00
2022-10-11T09:49:32.064Z,10.70
2022-10-11T09:52:02.449Z,10.30
2022-10-11T09:54:41.460Z,10.57
2022-10-11T09:57:20.900Z,10.83
2022-10-11T10:00:01.313Z,10.77
2022-10-11T10:02:43.588Z,10.30
2022-10-11T10:05:19.344Z,11.43
2022-10-11T10:08:22.578Z,10.10
2022-10-11T10:11:00.143Z,11.20
2022-10-11T10:13:30.276Z,9.20
2022-10-11T10:16:00.137Z,9.80
2022-10-11T10:18:32.935Z,8.67
2022-10-11T10:21:01.431Z,8.70
2022-10-11T10:23:32.003Z,9.33
2022-10-11T10:26:16.234Z,10.20
2022-10-11T10:29:18.627Z,8.63
2022-10-11T10:32:13.268Z,8.43
2022-10-11T10:34:54.281Z,8.23
2022-10-11T10:37:27.056Z,8.73
2022-10-11T10:39:58.923Z,6.87
2022-10-11T10:42:28.029Z,8.97
2022-10-11T10:44:59.060Z,8.10
2022-10-11T10:47:46.250Z,8.77
2022-10-11T10:50:18.674Z,8.00
2022-10-11T10:52:56.184Z,8.00
2022-10-11T10:55:28.079Z,8.20
2022-10-11T10:58:22.727Z,8.87
2022-10-11T11:00:52.188Z,10.10
2022-10-11T11:03:25.913Z,8.50
2022-10-11T11:06:02.126Z,7.10
2022-10-11T11:08:43.305Z,8.50
2022-10-11T11:11:28.284Z,6.37
2022-10-11T11:14:01.251Z,7.17
2022-10-11T11:16:34.143Z,8.10
2022-10-11T11:19:07.844Z,6.33
2022-10-11T11:21:42.543Z,6.70
2022-10-11T11:24:16.859Z,6.77
2022-10-11T11:26:49.015Z,5.90
2022-10-11T11:29:28.481Z,6.07
2022-10-11T11:32:07.438Z,6.27
2022-10-11T11:34:39.826Z,6.73
2022-10-11T11:37:12.749Z,5.57
2022-10-11T11:39:44.455Z,6.03
2022-10-11T11:42:15.316Z,5.70
2022-10-11T11:44:46.046Z,5.87
2022-10-11T11:47:19.162Z,5.07
2022-10-11T11:49:51.192Z,4.60
2022-10-11T11:52:24.948Z,5.60
2022-10-11T11:55:00.165Z,6.40
2022-10-11T11:57:45.835Z,4.30
2022-10-11T12:00:17.195Z,5.03
2022-10-11T12:02:46.934Z,4.47
2022-10-11T12:05:18.580Z,4.70
2022-10-11T12:07:59.085Z,6.20
2022-10-11T12:10:31.646Z,4.70
2022-10-11T12:13:07.564Z,4.07
2022-10-11T12:15:35.803Z,5.17
2022-10-11T12:18:07.520Z,5.00
2022-10-11T12:20:41.835Z,4.60
2022-10-11T12:23:53.679Z,4.30
2022-10-11T12:26:45.001Z,4.40
2022-10-11T12:29:42.825Z,4.07
2022-10-11T12:32:51.121Z,4.50
2022-10-11T12:35:51.559Z,4.50
2022-10-11T12:38:22.604Z,3.73
2022-10-11T12:40:52.347Z,3.97
2022-10-11T12:43:41.817Z,4.13
2022-10-11T12:46:40.424Z,4.50
2022-10-11T12:49:28.510Z,4.07
2022-10-11T12:52:01.688Z,4.50
2022-10-11T12:55:01.945Z,4.53
2022-10-11T12:57:57.126Z,4.80
2022-10-11T13:00:29.158Z,4.90
2022-10-11T13:02:58.375Z,4.73
2022-10-11T13:05:27.929Z,4.50
2022-10-11T13:07:59.841Z,5.17
2022-10-11T13:10:32.183Z,4.10
2022-10-11T13:13:04.441Z,4.43
2022-10-11T13:15:32.807Z,5.00
2022-10-11T13:18:01.450Z,5.10
2022-10-11T13:20:31.288Z,4.57
2022-10-11T13:23:01.154Z,4.67
2022-10-11T13:25:31.973Z,4.20
2022-10-11T13:28:01.707Z,4.00
2022-10-11T13:30:32.024Z,4.67
2022-10-11T13:33:00.867Z,5.23
2022-10-11T13:35:31.985Z,4.50
2022-10-11T13:38:01.844Z,4.60
2022-10-11T13:40:31.167Z,3.90
2022-10-11T13:42:59.681Z,4.03
2022-10-11T13:45:30.654Z,4.80
2022-10-11T13:47:58.845Z,4.37
2022-10-11T13:50:32.368Z,5.30
2022-10-11T13:53:03.304Z,4.33
2022-10-11T13:55:33.617Z,5.07
2022-10-11T13:58:03.266Z,4.17
2022-10-11T14:00:34.625Z,4.37
2022-10-11T14:03:05.445Z,4.57
2022-10-11T14:05:36.054Z,5.10
2022-10-11T14:08:07.228Z,5.33
2022-10-11T14:10:35.440Z,5.13
2022-10-11T14:13:07.170Z,4.50
2022-10-11T14:15:36.883Z,5.03
2022-10-11T14:18:38.140Z,5.40
2022-10-11T14:21:36.057Z,4.47
2022-10-11T14:24:10.567Z,4.60
2022-10-11T14:26:40.805Z,4.87
2022-10-11T14:29:10.264Z,5.17
2022-10-11T14:31:41.709Z,4.20
2022-10-11T14:34:17.758Z,5.43
2022-10-11T14:36:45.825Z,5.20
2022-10-11T14:39:17.649Z,4.00
2022-10-11T14:41:46.260Z,5.37
2022-10-11T14:44:14.388Z,5.37
2022-10-11T14:46:42.762Z,4.60
2022-10-11T14:49:15.675Z,4.40
2022-10-11T14:51:44.519Z,5.13
2022-10-11T14:54:12.831Z,4.30
2022-10-11T14:56:42.274Z,4.97
2022-10-11T14:59:12.374Z,4.57
2022-10-11T15:01:40.672Z,4.80
2022-10-11T15:04:08.897Z,5.10
2022-10-11T15:06:40.763Z,5.40
2022-10-11T15:09:09.112Z,5.33
2022-10-11T15:11:38.703Z,5.80
2022-10-11T15:14:08.260Z,5.00
2022-10-11T15:16:40.064Z,4.70
2022-10-11T15:19:08.343Z,4.80
2022-10-11T15:21:36.468Z,5.07
2022-10-11T15:24:06.513Z,4.90
2022-10-11T15:26:34.977Z,5.07
2022-10-11T15:29:06.822Z,5.53
2022-10-11T15:31:36.961Z,5.90
2022-10-11T15:34:07.815Z,5.60
2022-10-11T15:36:38.742Z,5.57
2022-10-11T15:39:23.920Z,6.37
2022-10-11T15:41:52.412Z,7.60
2022-10-11T15:44:20.513Z,6.40
2022-10-11T15:46:49.950Z,6.27
2022-10-11T15:49:18.529Z,6.30
2022-10-11T15:51:46.997Z,6.40
2022-10-11T15:54:15.094Z,4.87
2022-10-11T15:56:43.344Z,5.37
2022-10-11T15:59:12.466Z,4.67
2022-10-11T16:01:40.709Z,4.80
2022-10-11T16:04:10.779Z,4.23
2022-10-11T16:06:38.885Z,5.47
2022-10-11T16:09:06.955Z,5.50
2022-10-11T16:11:34.997Z,5.40
2022-10-11T16:14:03.205Z,6.00
2022-10-11T16:16:31.228Z,5.63
2022-10-11T16:18:59.332Z,5.47
2022-10-11T16:21:28.761Z,5.03
2022-10-11T16:23:56.815Z,5.67
2022-10-11T16:26:24.903Z,5.53
2022-10-11T16:28:53.034Z,6.17
2022-10-11T16:31:21.203Z,5.90
2022-10-11T16:33:50.318Z,6.30
2022-10-11T16:36:40.731Z,6.20
2022-10-11T16:39:14.091Z,6.57
2022-10-11T16:41:42.696Z,6.47
2022-10-11T16:44:13.868Z,7.20
2022-10-11T16:46:42.609Z,7.90
2022-10-11T16:49:10.719Z,8.50
2022-10-11T16:51:38.804Z,7.60
2022-10-11T16:54:07.126Z,7.83
2022-10-11T16:56:39.929Z,7.70
2022-10-11T16:59:08.595Z,7.97
2022-10-11T17:01:36.725Z,8.00
2022-10-11T17:04:05.111Z,9.00
2022-10-11T17:06:33.268Z,9.70
2022-10-11T17:09:01.340Z,10.63
2022-10-11T17:11:29.400Z,8.90
2022-10-11T17:13:59.489Z,9.10
2022-10-11T17:16:27.899Z,10.43
2022-10-11T17:18:56.065Z,10.00
2022-10-11T17:21:24.444Z,10.10
2022-10-11T17:23:53.138Z,10.37
2022-10-11T17:26:23.298Z,11.73
2022-10-11T17:28:51.935Z,11.17
2022-10-11T17:31:21.443Z,11.03
2022-10-11T17:33:50.253Z,12.03
2022-10-11T17:36:22.965Z,12.70
2022-10-11T17:38:52.355Z,12.80
2022-10-11T17:41:21.044Z,12.50
2022-10-11T17:43:49.977Z,12.70
2022-10-11T17:46:19.239Z,14.60
2022-10-11T17:48:49.637Z,12.33
2022-10-11T17:51:20.680Z,16.47
2022-10-11T17:53:50.850Z,18.00
2022-10-11T17:56:26.778Z,13.23
2022-10-11T17:58:58.788Z,11.83
2022-10-11T18:01:30.795Z,11.30
2022-10-11T18:04:02.215Z,13.20
2022-10-11T18:06:32.466Z,11.30
2022-10-11T18:09:02.777Z,12.30
2022-10-11T18:11:32.119Z,13.10
2022-10-11T18:14:01.163Z,13.90
2022-10-11T18:16:30.821Z,12.20
2022-10-11T18:19:02.943Z,12.73
2022-10-11T18:21:34.546Z,12.43
2022-10-11T18:24:04.920Z,15.00
2022-10-11T18:26:33.914Z,13.07
2022-10-11T18:29:02.421Z,13.07
2022-10-11T18:31:33.749Z,13.27
2022-10-11T18:34:04.540Z,12.60
2022-10-11T18:36:33.497Z,12.60
2022-10-11T18:39:03.535Z,13.40
2022-10-11T18:41:33.664Z,11.57
2022-10-11T18:44:04.524Z,13.17
2022-10-11T18:46:33.630Z,13.87
2022-10-11T18:49:04.900Z,12.80
2022-10-11T18:51:35.536Z,13.57
2022-10-11T18:54:05.076Z,12.80
2022-10-11T18:56:34.688Z,13.10
2022-10-11T18:59:03.213Z,13.27
2022-10-11T19:01:33.727Z,15.70
2022-10-11T19:04:05.503Z,14.43
2022-10-11T19:06:37.199Z,14.63
2022-10-11T19:09:08.208Z,15.70
2022-10-11T19:11:38.356Z,19.50
2022-10-11T19:14:09.965Z,21.23
2022-10-11T19:16:40.906Z,22.40
2022-10-11T19:19:12.875Z,23.47
2022-10-11T19:21:42.339Z,22.10
2022-10-11T19:24:11.001Z,24.30
2022-10-11T19:26:41.505Z,25.67
2022-10-11T19:29:11.151Z,28.40
2022-10-11T19:31:43.107Z,24.83
2022-10-11T19:34:13.453Z,21.67
2022-10-11T19:36:43.135Z,24.17
2022-10-11T19:39:12.804Z,23.73
2022-10-11T19:41:42.215Z,18.70
2022-10-11T19:44:10.871Z,19.30
2022-10-11T19:46:55.398Z,18.63
2022-10-11T19:49:26.546Z,18.10
2022-10-11T19:51:56.261Z,17.63
2022-10-11T19:54:25.134Z,18.60
2022-10-11T19:56:53.757Z,18.20
2022-10-11T19:59:22.708Z,20.10
2022-10-11T20:01:53.519Z,18.23
2022-10-11T20:04:50.645Z,18.10
2022-10-11T20:07:13.080Z,17.50
2022-10-11T20:09:41.227Z,16.90
2022-10-11T20:12:09.766Z,18.03
2022-10-11T20:14:37.882Z,16.40
2022-10-11T20:17:06.115Z,16.13
2022-10-11T20:19:34.476Z,15.43
2022-10-11T20:22:02.654Z,17.17
2022-10-11T20:24:34.598Z,16.17
2022-10-11T20:27:04.292Z,15.80
2022-10-11T20:29:32.561Z,14.97
2022-10-11T20:32:00.757Z,15.60
2022-10-11T20:34:29.292Z,14.27
2022-10-11T20:36:57.389Z,15.50
2022-10-11T20:39:25.732Z,15.33
2022-10-11T20:41:55.162Z,15.03
2022-10-11T20:44:23.375Z,14.47
2022-10-11T20:46:51.506Z,13.83
2022-10-11T20:49:20.780Z,14.37
2022-10-11T20:51:48.962Z,14.20
2022-10-11T20:54:17.719Z,14.23
2022-10-11T20:56:45.855Z,13.43
2022-10-11T20:59:15.421Z,13.83
2022-10-11T21:01:43.588Z,14.00
2022-10-11T21:04:17.368Z,16.40
2022-10-11T21:06:45.542Z,14.30
2022-10-11T21:09:15.656Z,14.20
2022-10-11T21:11:44.878Z,15.10
2022-10-11T21:14:12.938Z,12.43
2022-10-11T21:16:42.426Z,13.87
2022-10-11T21:19:14.184Z,13.73
2022-10-11T21:21:42.538Z,13.50
2022-10-11T21:24:10.619Z,14.00
2022-10-11T21:26:38.739Z,13.17
2022-10-11T21:29:07.604Z,13.23
2022-10-11T21:31:36.016Z,14.30
2022-10-11T21:34:07.397Z,13.13
2022-10-11T21:36:35.603Z,13.60
2022-10-11T21:39:03.840Z,14.27
2022-10-11T21:41:32.153Z,13.37
2022-10-11T21:44:00.972Z,13.67
2022-10-11T21:47:01.334Z,14.53
2022-10-11T21:49:20.274Z,13.70
2022-10-11T21:51:48.307Z,13.53
2022-10-11T21:54:16.521Z,13.20
2022-10-11T21:56:44.590Z,12.80
2022-10-11T21:59:12.917Z,13.10
2022-10-11T22:01:41.839Z,12.40
2022-10-11T22:04:11.191Z,12.40
2022-10-11T22:06:41.057Z,11.50
2022-10-11T22:09:09.367Z,13.10
2022-10-11T22:11:38.038Z,12.90
2022-10-11T22:14:06.348Z,11.40
2022-10-11T22:16:34.892Z,12.60
2022-10-11T22:19:03.097Z,11.67
2022-10-11T22:21:32.033Z,11.50
2022-10-11T22:24:01.524Z,11.90
2022-10-11T22:26:31.183Z,11.47
2022-10-11T22:28:59.799Z,11.23
2022-10-11T22:31:37.189Z,10.50
2022-10-11T22:34:05.277Z,11.33
2022-10-11T22:36:33.826Z,10.97
2022-10-11T22:39:07.775Z,11.10
2022-10-11T22:41:36.406Z,10.70
2022-10-11T22:44:04.982Z,10.60
2022-10-11T22:46:33.107Z,10.93
2022-10-11T22:49:01.181Z,11.30
2022-10-11T22:51:29.292Z,10.20
2022-10-11T22:53:57.352Z,9.70
2022-10-11T22:56:26.852Z,10.73
2022-10-11T22:58:54.919Z,9.87
2022-10-11T23:01:23.022Z,9.43
2022-10-11T23:03:51.237Z,10.20
2022-10-11T23:06:19.528Z,9.13
2022-10-11T23:08:47.651Z,9.87
2022-10-11T23:11:19.231Z,9.90
2022-10-11T23:13:53.225Z,10.70
2022-10-11T23:16:22.172Z,9.53
2022-10-11T23:18:53.148Z,9.90
2022-10-11T23:21:24.487Z,10.00
2022-10-11T23:23:53.437Z,9.37
2022-10-11T23:26:21.599Z,10.43
2022-10-11T23:28:54.765Z,10.83
2022-10-11T23:31:23.311Z,11.33
2022-10-11T23:33:51.402Z,10.13
2022-10-11T23:36:21.794Z,10.83
2022-10-11T23:38:51.906Z,10.10
2022-10-11T23:41:20.059Z,10.17
2022-10-11T23:43:48.186Z,10.37
2022-10-11T23:46:17.839Z,10.13
2022-10-11T23:48:46.064Z,9.70
2022-10-11T23:51:14.474Z,10.87
2022-10-11T23:53:42.542Z,9.33
2022-10-11T23:56:11.350Z,9.53
2022-10-11T23:58:39.503Z,9.30
